createdAt,value
2017-09-02T00:01:15.396Z,1.77
2017-09-02T00:03:49.439Z,1.60
2017-09-02T00:06:23.658Z,1.70
2017-09-02T00:08:57.844Z,1.70
2017-09-02T00:11:32.480Z,1.63
2017-09-02T00:14:06.355Z,1.60
2017-09-02T00:16:40.384Z,1.50
2017-09-02T00:19:14.399Z,1.47
2017-09-02T00:21:48.418Z,1.60
2017-09-02T00:24:22.607Z,1.70
2017-09-02T00:26:56.856Z,1.60
2017-09-02T00:29:30.757Z,1.50
2017-09-02T00:32:04.903Z,1.47
2017-09-02T00:34:38.905Z,1.73
2017-09-02T00:37:13.276Z,1.53
2017-09-02T00:39:47.304Z,1.50
2017-09-02T00:42:20.855Z,1.67
2017-09-02T00:44:54.967Z,1.60
2017-09-02T00:47:29.015Z,1.60
2017-09-02T00:50:03.252Z,1.70
2017-09-02T00:52:37.264Z,1.57
2017-09-02T00:55:11.109Z,1.70
2017-09-02T00:57:45.471Z,1.57
2017-09-02T01:00:19.447Z,1.40
2017-09-02T01:02:53.969Z,1.47
2017-09-02T01:05:28.060Z,1.40
2017-09-02T01:08:02.125Z,1.47
2017-09-02T01:10:36.112Z,1.60
2017-09-02T01:13:10.120Z,1.40
2017-09-02T01:15:44.265Z,1.50
2017-09-02T01:18:18.368Z,1.40
2017-09-02T01:20:52.424Z,1.70
2017-09-02T01:23:26.591Z,1.60
2017-09-02T01:26:00.156Z,1.60
2017-09-02T01:28:34.308Z,1.60
2017-09-02T01:31:08.333Z,1.50
2017-09-02T01:33:42.217Z,1.73
2017-09-02T01:36:16.397Z,1.77
2017-09-02T01:38:50.501Z,1.70
2017-09-02T01:41:24.681Z,1.60
2017-09-02T01:43:58.781Z,1.90
2017-09-02T01:46:33.002Z,1.60
2017-09-02T01:49:07.052Z,1.50
2017-09-02T01:51:41.248Z,1.40
2017-09-02T01:54:15.093Z,1.90
2017-09-02T01:56:49.213Z,1.77
2017-09-02T01:59:23.400Z,1.77
2017-09-02T02:01:57.891Z,1.80
2017-09-02T02:04:31.935Z,2.00
2017-09-02T02:07:05.952Z,2.10
2017-09-02T02:09:40.253Z,1.50
2017-09-02T02:12:14.376Z,2.00
2017-09-02T02:14:48.430Z,2.00
2017-09-02T02:17:22.334Z,1.80
2017-09-02T02:19:56.789Z,1.80
2017-09-02T02:22:30.932Z,2.20
2017-09-02T02:25:04.932Z,1.87
2017-09-02T02:27:39.045Z,1.90
2017-09-02T02:30:13.444Z,1.87
2017-09-02T02:32:47.516Z,2.23
2017-09-02T02:35:21.825Z,2.27
2017-09-02T02:37:56.089Z,2.00
2017-09-02T02:40:29.904Z,2.10
2017-09-02T02:43:04.133Z,1.90
2017-09-02T02:45:38.385Z,2.03
2017-09-02T02:48:13.149Z,2.00
2017-09-02T02:50:47.012Z,2.03
2017-09-02T02:53:20.587Z,1.97
2017-09-02T02:55:54.831Z,2.13
2017-09-02T02:58:29.216Z,1.90
2017-09-02T03:01:03.341Z,2.53
2017-09-02T03:03:37.430Z,2.40
2017-09-02T03:06:11.584Z,2.53
2017-09-02T03:08:45.889Z,2.50
2017-09-02T03:11:20.077Z,2.50
2017-09-02T03:13:54.060Z,2.37
2017-09-02T03:16:27.688Z,2.63
2017-09-02T03:19:01.729Z,2.50
2017-09-02T03:21:35.698Z,2.47
2017-09-02T03:24:10.084Z,2.53
2017-09-02T03:26:44.109Z,2.60
2017-09-02T03:29:18.189Z,2.67
2017-09-02T03:31:52.180Z,2.50
2017-09-02T03:34:26.484Z,2.60
2017-09-02T03:36:59.992Z,2.40
2017-09-02T03:39:34.229Z,2.50
2017-09-02T03:42:08.348Z,2.63
2017-09-02T03:44:42.333Z,2.63
2017-09-02T03:47:16.589Z,2.40
2017-09-02T03:49:50.530Z,2.67
2017-09-02T03:52:24.502Z,2.63
2017-09-02T03:54:58.785Z,2.50
2017-09-02T03:57:32.893Z,2.60
2017-09-02T04:00:06.820Z,2.40
2017-09-02T04:02:41.010Z,2.40
2017-09-02T04:05:14.932Z,2.53
2017-09-02T04:07:48.990Z,2.73
2017-09-02T04:10:23.168Z,2.33
2017-09-02T04:12:57.437Z,2.67
2017-09-02T04:15:31.296Z,2.70
2017-09-02T04:18:05.536Z,2.50
2017-09-02T04:20:39.576Z,5.40
2017-09-02T04:23:13.309Z,2.67
2017-09-02T04:25:47.531Z,2.40
2017-09-02T04:28:21.827Z,2.60
2017-09-02T04:30:56.001Z,2.07
2017-09-02T04:33:30.385Z,2.50
2017-09-02T04:36:04.435Z,2.60
2017-09-02T04:38:38.640Z,2.80
2017-09-02T04:41:12.173Z,2.90
2017-09-02T04:43:45.629Z,2.50
2017-09-02T04:46:19.768Z,2.30
2017-09-02T04:48:54.140Z,2.13
2017-09-02T04:51:28.093Z,2.30
2017-09-02T04:54:02.163Z,2.20
2017-09-02T04:56:36.333Z,2.40
2017-09-02T04:59:10.333Z,2.50
2017-09-02T05:01:43.861Z,2.50
2017-09-02T05:04:17.916Z,2.40
2017-09-02T05:06:51.944Z,2.60
2017-09-02T05:09:26.137Z,3.03
2017-09-02T05:12:00.546Z,2.70
2017-09-02T05:14:35.004Z,2.97
2017-09-02T05:17:09.123Z,2.77
2017-09-02T05:19:43.335Z,2.40
2017-09-02T05:22:17.817Z,2.80
2017-09-02T05:24:51.904Z,2.97
2017-09-02T05:27:25.846Z,2.50
2017-09-02T05:29:59.673Z,2.50
2017-09-02T05:32:33.554Z,2.50
2017-09-02T05:35:07.537Z,2.47
2017-09-02T05:37:41.835Z,2.40
2017-09-02T05:40:15.937Z,2.33
2017-09-02T05:42:49.949Z,2.97
2017-09-02T05:45:24.145Z,2.40
2017-09-02T05:47:57.958Z,2.70
2017-09-02T05:50:31.892Z,2.60
2017-09-02T05:53:06.117Z,2.70
2017-09-02T05:55:40.139Z,3.07
2017-09-02T05:58:14.504Z,2.43
2017-09-02T06:00:48.952Z,3.07
2017-09-02T06:03:23.361Z,2.77
2017-09-02T06:05:57.807Z,2.70
2017-09-02T06:08:32.091Z,2.73
2017-09-02T06:11:06.527Z,2.80
2017-09-02T06:13:40.758Z,2.73
2017-09-02T06:16:14.928Z,2.70
2017-09-02T06:18:49.076Z,2.90
2017-09-02T06:21:23.311Z,2.50
2017-09-02T06:23:57.683Z,2.90
2017-09-02T06:26:31.900Z,2.73
2017-09-02T06:29:05.943Z,2.90
2017-09-02T06:31:40.373Z,2.70
2017-09-02T06:34:13.852Z,2.70
2017-09-02T06:36:48.204Z,2.73
2017-09-02T06:39:22.021Z,2.20
2017-09-02T06:41:56.285Z,2.30
2017-09-02T06:44:30.496Z,2.20
2017-09-02T06:47:04.345Z,2.70
2017-09-02T06:49:38.437Z,2.80
2017-09-02T06:52:12.530Z,2.57
2017-09-02T06:54:46.804Z,2.73
2017-09-02T06:57:20.975Z,2.40
2017-09-02T06:59:55.309Z,2.50
2017-09-02T07:02:29.682Z,1.97
2017-09-02T07:05:03.958Z,2.17
2017-09-02T07:07:38.132Z,1.97
2017-09-02T07:10:12.304Z,1.83
2017-09-02T07:12:46.448Z,2.10
2017-09-02T07:15:19.984Z,1.80
2017-09-02T07:17:53.757Z,1.90
2017-09-02T07:20:27.932Z,1.73
2017-09-02T07:23:01.884Z,2.10
2017-09-02T07:25:35.633Z,2.10
2017-09-02T07:28:09.730Z,1.93
2017-09-02T07:30:44.128Z,2.07
2017-09-02T07:33:18.317Z,2.03
2017-09-02T07:35:52.291Z,1.93
2017-09-02T07:38:26.401Z,2.00
2017-09-02T07:41:00.390Z,2.10
2017-09-02T07:43:34.431Z,2.10
2017-09-02T07:46:08.596Z,2.40
2017-09-02T07:48:42.699Z,1.93
2017-09-02T07:51:16.664Z,1.87
2017-09-02T07:53:50.884Z,2.00
2017-09-02T07:56:24.917Z,2.30
2017-09-02T07:58:59.739Z,2.30
2017-09-02T08:01:34.047Z,2.25
2017-09-02T08:04:08.249Z,2.00
2017-09-02T08:06:42.424Z,2.13
2017-09-02T08:09:16.543Z,2.60
2017-09-02T08:11:50.330Z,2.43
2017-09-02T08:14:24.328Z,2.20
2017-09-02T08:16:58.442Z,2.40
2017-09-02T08:19:32.611Z,2.33
2017-09-02T08:22:06.941Z,2.50
2017-09-02T08:24:40.912Z,2.03
2017-09-02T08:27:14.352Z,2.50
2017-09-02T08:29:48.524Z,2.23
2017-09-02T08:32:22.588Z,2.07
2017-09-02T08:34:56.841Z,2.40
2017-09-02T08:37:30.893Z,2.00
2017-09-02T08:40:05.077Z,2.27
2017-09-02T08:42:39.345Z,2.10
2017-09-02T08:45:13.507Z,2.50
2017-09-02T08:47:47.077Z,2.10
2017-09-02T08:50:21.456Z,2.13
2017-09-02T08:52:54.973Z,2.30
2017-09-02T08:55:28.869Z,2.50
2017-09-02T08:58:02.750Z,2.60
2017-09-02T09:00:36.756Z,2.50
2017-09-02T09:03:10.772Z,2.40
2017-09-02T09:05:44.231Z,1.90
2017-09-02T09:08:18.935Z,1.77
2017-09-02T09:10:52.516Z,2.10
2017-09-02T09:13:26.372Z,1.97
2017-09-02T09:16:00.667Z,2.33
2017-09-02T09:18:34.417Z,2.23
2017-09-02T09:21:08.352Z,2.30
2017-09-02T09:23:42.271Z,2.40
2017-09-02T09:26:16.212Z,2.00
2017-09-02T09:28:50.244Z,2.00
2017-09-02T09:31:24.545Z,1.90
2017-09-02T09:33:58.749Z,2.50
2017-09-02T09:36:32.966Z,1.97
2017-09-02T09:50:50.518Z,2.80
2017-09-02T09:53:24.470Z,2.30
2017-09-02T09:55:58.439Z,2.40
2017-09-02T09:58:32.455Z,2.40
2017-09-02T10:01:07.562Z,2.20
2017-09-02T10:03:42.410Z,2.37
2017-09-02T10:06:16.577Z,2.43
2017-09-02T10:08:49.984Z,2.23
2017-09-02T10:11:24.346Z,2.20
2017-09-02T10:14:00.423Z,2.40
2017-09-02T10:16:35.990Z,2.23
2017-09-02T10:19:10.112Z,2.20
2017-09-02T10:21:44.068Z,2.17
2017-09-02T10:24:18.345Z,1.80
2017-09-02T10:26:52.669Z,2.00
2017-09-02T10:29:26.562Z,1.83
2017-09-02T10:32:00.713Z,2.40
2017-09-02T10:34:34.729Z,2.00
2017-09-02T10:37:08.754Z,2.30
2017-09-02T10:39:42.717Z,2.60
2017-09-02T10:59:57.557Z,2.43
2017-09-02T11:02:31.205Z,1.90
2017-09-02T11:05:05.170Z,1.90
2017-09-02T11:07:39.236Z,2.00
2017-09-02T11:10:13.265Z,1.80
2017-09-02T11:12:47.420Z,1.80
2017-09-02T11:15:21.820Z,1.83
2017-09-02T11:17:55.843Z,1.97
2017-09-02T11:20:29.393Z,1.90
2017-09-02T11:23:03.338Z,2.23
2017-09-02T11:25:37.044Z,2.20
2017-09-02T11:28:11.089Z,2.53
2017-09-02T11:30:44.861Z,2.10
2017-09-02T13:01:41.981Z,2.03
2017-09-02T13:04:15.935Z,2.27
2017-09-02T19:03:28.743Z,1.80
2017-09-02T19:06:02.930Z,2.30
2017-09-02T21:00:43.188Z,2.40
2017-09-02T21:03:16.852Z,2.10
2017-09-02T21:05:50.701Z,2.20
2017-09-02T21:08:24.783Z,2.10
2017-09-02T21:10:58.314Z,1.87
2017-09-02T21:13:31.978Z,1.80
2017-09-02T21:16:05.293Z,2.30
2017-09-02T21:18:39.147Z,2.10
2017-09-02T21:21:13.224Z,2.17
2017-09-02T21:23:47.457Z,3.83
2017-09-02T21:26:21.949Z,2.33
2017-09-02T21:28:55.674Z,2.27
2017-09-02T21:31:29.608Z,2.13
2017-09-02T21:34:03.572Z,2.47
2017-09-02T21:36:37.536Z,2.13
2017-09-02T21:39:11.293Z,2.70
2017-09-02T22:08:24.385Z,2.40
2017-09-02T22:10:58.696Z,2.90
2017-09-02T22:13:32.757Z,2.10
2017-09-02T22:16:06.805Z,2.50
2017-09-02T22:18:40.147Z,2.50
2017-09-02T22:21:14.644Z,2.37
2017-09-02T22:23:48.528Z,2.53
2017-09-02T22:26:22.253Z,2.20
2017-09-02T22:28:56.229Z,2.40
2017-09-02T22:31:30.368Z,2.30
2017-09-02T22:34:04.472Z,2.77
2017-09-02T22:36:38.897Z,2.40
2017-09-02T22:39:14.188Z,2.33
2017-09-02T22:41:48.388Z,2.40
2017-09-02T22:44:22.381Z,2.27
2017-09-02T22:46:56.414Z,2.40
2017-09-02T22:49:30.384Z,2.47
2017-09-02T22:52:04.480Z,2.70
2017-09-02T22:54:38.044Z,2.43
2017-09-02T22:57:12.071Z,2.30
2017-09-02T22:59:45.622Z,2.63
2017-09-02T23:02:19.953Z,2.13
2017-09-02T23:04:54.160Z,2.33
2017-09-02T23:07:28.147Z,2.87
2017-09-02T23:10:02.309Z,2.40
2017-09-02T23:12:36.564Z,2.60
2017-09-02T23:15:10.712Z,2.07
2017-09-02T23:17:44.846Z,2.60
2017-09-02T23:20:19.260Z,2.20
2017-09-02T23:22:53.315Z,2.30
2017-09-02T23:25:26.843Z,2.20
2017-09-02T23:28:01.055Z,2.20
2017-09-02T23:30:35.294Z,2.57
2017-09-02T23:33:09.600Z,2.47
2017-09-02T23:35:43.816Z,2.60
2017-09-02T23:38:17.981Z,3.07
2017-09-02T23:40:52.246Z,2.43
2017-09-02T23:43:26.296Z,2.60
2017-09-02T23:46:00.600Z,2.33
2017-09-02T23:48:34.639Z,2.60
2017-09-02T23:51:08.684Z,2.57
2017-09-02T23:53:42.519Z,2.90
2017-09-02T23:56:16.532Z,2.70
2017-09-02T23:58:50.667Z,2.60
